Hauptseite
METAR-TAF:

METAR-TAF

Flughäfen :

Recife, Pernambuco, Brasilien

Flughafen Recife

Breite: 08-08S, Länge: 034-55W, Höhe: 19 m

Beobachtung

Neuester Wetterbericht von vor 56 Minuten, um 06:00 UTC
Wind 4 kt aus Süd/Südwest
Temperatur 22°C
Luftfeuchtigkeit 83%
Luftdruck 1015 hPa
Sichtweite 10 km oder mehr
Leicht bewölkt in der Höhe von 2300 ft

METAR: SBRF 240600Z 21004KT 9999 FEW023 22/19 Q1015

Zeit: 03:56 (06:56 UTC)

Prognose

Neuester Wetterbericht von vor 2 Stunden und 56 Minuten, um 04:00 UTC
Gültige Prognose vom 24 um 06 UTC bis 25 um 06 UTC
Wind 12 kt aus Südost
Sichtweite: 8000 m
Aufgelockert bewölkt in der Höhe von 2000 ft

TAF: SBRF 240400Z 2406/2506 14012KT 8000 SCT020 TN24/2408Z TX28/2415Z RMK PEU

Wetterbeobachtungen und Prognosen von mehr als 4000 Flughäfen (METAR und TAF Bericht).

Die verfügbaren Stationen werden durch gelbe und rote Markierungen auf der Karte dargestellt.

Führen Sie die Maus auf sie, um den Namen der Station zu sehen.

Darauf klicken, um die Beobachtung von Wetterbeobachtungen und Prognosen zu sehen.

Um die Karte zu ändern : klicken Sie auf den grünen Tasten mit einem schwarzen Kreuz Zum Vergrößern, auf den grünen Button mit einem Gedankenstrich zu verkleinern, oder auf die grünen Pfeile für benachbarte Karten.


METAR-TAF: